sensor_id;sensor_type;location;lat;lon;timestamp;P1;durP1;ratioP1;P2;durP2;ratioP2
11039;SDS011;5573;49.592;8.662;2023-11-18T00:00:09;35.63;;;33.77;;
11039;SDS011;5573;49.592;8.662;2023-11-18T00:02:40;35.23;;;33.33;;
11039;SDS011;5573;49.592;8.662;2023-11-18T00:05:10;35.57;;;33.67;;
11039;SDS011;5573;49.592;8.662;2023-11-18T00:07:39;36.10;;;34.20;;
11039;SDS011;5573;49.592;8.662;2023-11-18T00:10:08;36.27;;;34.33;;
11039;SDS011;5573;49.592;8.662;2023-11-18T00:12:36;37.27;;;35.30;;
11039;SDS011;5573;49.592;8.662;2023-11-18T00:15:08;35.00;;;33.10;;
11039;SDS011;5573;49.592;8.662;2023-11-18T00:17:37;35.00;;;33.10;;
11039;SDS011;5573;49.592;8.662;2023-11-18T00:20:06;33.13;;;31.37;;
11039;SDS011;5573;49.592;8.662;2023-11-18T00:22:37;37.67;;;35.60;;
11039;SDS011;5573;49.592;8.662;2023-11-18T00:25:08;38.70;;;36.57;;
11039;SDS011;5573;49.592;8.662;2023-11-18T00:27:37;38.73;;;36.67;;
11039;SDS011;5573;49.592;8.662;2023-11-18T00:30:05;35.57;;;33.63;;
11039;SDS011;5573;49.592;8.662;2023-11-18T00:32:37;36.50;;;34.60;;
11039;SDS011;5573;49.592;8.662;2023-11-18T00:35:06;36.83;;;34.90;;
11039;SDS011;5573;49.592;8.662;2023-11-18T00:37:35;35.03;;;33.00;;
11039;SDS011;5573;49.592;8.662;2023-11-18T00:40:03;34.67;;;32.77;;
11039;SDS011;5573;49.592;8.662;2023-11-18T00:42:35;36.57;;;34.53;;
11039;SDS011;5573;49.592;8.662;2023-11-18T00:45:04;38.03;;;36.00;;
11039;SDS011;5573;49.592;8.662;2023-11-18T00:47:33;35.00;;;33.13;;
11039;SDS011;5573;49.592;8.662;2023-11-18T00:50:01;37.17;;;35.20;;
11039;SDS011;5573;49.592;8.662;2023-11-18T00:52:30;34.80;;;32.93;;
11039;SDS011;5573;49.592;8.662;2023-11-18T00:54:58;33.67;;;31.83;;
11039;SDS011;5573;49.592;8.662;2023-11-18T00:57:26;37.00;;;35.03;;
11039;SDS011;5573;49.592;8.662;2023-11-18T00:59:56;35.73;;;33.83;;
11039;SDS011;5573;49.592;8.662;2023-11-18T01:02:24;33.67;;;31.87;;
11039;SDS011;5573;49.592;8.662;2023-11-18T01:04:53;36.23;;;34.23;;
11039;SDS011;5573;49.592;8.662;2023-11-18T01:07:22;36.13;;;34.23;;
11039;SDS011;5573;49.592;8.662;2023-11-18T01:09:50;33.83;;;32.07;;
11039;SDS011;5573;49.592;8.662;2023-11-18T01:12:18;35.07;;;33.20;;
11039;SDS011;5573;49.592;8.662;2023-11-18T01:14:47;34.97;;;33.07;;
11039;SDS011;5573;49.592;8.662;2023-11-18T01:17:16;33.73;;;31.93;;
11039;SDS011;5573;49.592;8.662;2023-11-18T01:19:44;37.07;;;34.97;;
11039;SDS011;5573;49.592;8.662;2023-11-18T01:22:12;34.13;;;32.33;;
11039;SDS011;5573;49.592;8.662;2023-11-18T01:24:41;36.33;;;34.30;;
11039;SDS011;5573;49.592;8.662;2023-11-18T01:27:09;34.27;;;32.43;;
11039;SDS011;5573;49.592;8.662;2023-11-18T01:29:38;33.47;;;31.63;;
11039;SDS011;5573;49.592;8.662;2023-11-18T01:32:06;31.27;;;29.60;;
11039;SDS011;5573;49.592;8.662;2023-11-18T01:34:38;34.67;;;32.70;;
11039;SDS011;5573;49.592;8.662;2023-11-18T01:37:06;34.83;;;33.03;;
11039;SDS011;5573;49.592;8.662;2023-11-18T01:39:36;33.63;;;31.87;;
11039;SDS011;5573;49.592;8.662;2023-11-18T01:42:03;36.57;;;34.63;;
11039;SDS011;5573;49.592;8.662;2023-11-18T01:44:32;35.23;;;33.27;;
11039;SDS011;5573;49.592;8.662;2023-11-18T01:47:01;32.53;;;30.73;;
11039;SDS011;5573;49.592;8.662;2023-11-18T01:49:34;35.50;;;33.60;;
11039;SDS011;5573;49.592;8.662;2023-11-18T01:52:08;35.57;;;33.70;;
11039;SDS011;5573;49.592;8.662;2023-11-18T01:54:39;35.03;;;33.10;;
11039;SDS011;5573;49.592;8.662;2023-11-18T01:57:11;32.90;;;31.13;;
11039;SDS011;5573;49.592;8.662;2023-11-18T01:59:40;33.30;;;31.50;;
11039;SDS011;5573;49.592;8.662;2023-11-18T02:02:09;33.87;;;31.97;;
11039;SDS011;5573;49.592;8.662;2023-11-18T02:04:38;34.43;;;32.63;;
11039;SDS011;5573;49.592;8.662;2023-11-18T02:07:09;32.97;;;31.20;;
11039;SDS011;5573;49.592;8.662;2023-11-18T02:09:41;32.40;;;30.67;;
11039;SDS011;5573;49.592;8.662;2023-11-18T02:12:16;32.53;;;30.80;;
11039;SDS011;5573;49.592;8.662;2023-11-18T02:14:49;31.27;;;29.60;;
11039;SDS011;5573;49.592;8.662;2023-11-18T02:17:18;31.83;;;30.13;;
11039;SDS011;5573;49.592;8.662;2023-11-18T02:19:51;32.17;;;30.47;;
11039;SDS011;5573;49.592;8.662;2023-11-18T02:22:24;30.17;;;28.40;;
11039;SDS011;5573;49.592;8.662;2023-11-18T02:24:54;30.67;;;29.10;;
11039;SDS011;5573;49.592;8.662;2023-11-18T02:27:24;29.67;;;28.07;;
11039;SDS011;5573;49.592;8.662;2023-11-18T02:29:53;29.23;;;27.67;;
11039;SDS011;5573;49.592;8.662;2023-11-18T02:32:23;30.20;;;28.57;;
11039;SDS011;5573;49.592;8.662;2023-11-18T02:34:58;30.73;;;29.13;;
11039;SDS011;5573;49.592;8.662;2023-11-18T02:37:32;30.60;;;29.00;;
11039;SDS011;5573;49.592;8.662;2023-11-18T02:40:03;31.27;;;29.50;;
11039;SDS011;5573;49.592;8.662;2023-11-18T02:42:38;31.37;;;29.63;;
11039;SDS011;5573;49.592;8.662;2023-11-18T02:45:07;29.73;;;28.20;;
11039;SDS011;5573;49.592;8.662;2023-11-18T02:47:39;30.50;;;28.90;;
11039;SDS011;5573;49.592;8.662;2023-11-18T02:50:07;29.87;;;28.23;;
11039;SDS011;5573;49.592;8.662;2023-11-18T02:52:37;33.00;;;31.17;;
11039;SDS011;5573;49.592;8.662;2023-11-18T02:55:06;32.03;;;30.37;;
11039;SDS011;5573;49.592;8.662;2023-11-18T02:57:35;33.67;;;31.63;;
11039;SDS011;5573;49.592;8.662;2023-11-18T03:00:05;35.00;;;33.10;;
11039;SDS011;5573;49.592;8.662;2023-11-18T03:02:38;32.70;;;30.90;;
11039;SDS011;5573;49.592;8.662;2023-11-18T03:05:07;31.03;;;29.37;;
11039;SDS011;5573;49.592;8.662;2023-11-18T03:07:38;33.70;;;31.93;;
11039;SDS011;5573;49.592;8.662;2023-11-18T03:10:06;33.13;;;31.37;;
11039;SDS011;5573;49.592;8.662;2023-11-18T03:12:38;36.17;;;34.27;;
11039;SDS011;5573;49.592;8.662;2023-11-18T03:15:07;34.40;;;32.50;;
11039;SDS011;5573;49.592;8.662;2023-11-18T03:17:38;31.20;;;29.57;;
11039;SDS011;5573;49.592;8.662;2023-11-18T03:20:06;36.57;;;34.57;;
11039;SDS011;5573;49.592;8.662;2023-11-18T03:22:35;36.97;;;35.03;;
11039;SDS011;5573;49.592;8.662;2023-11-18T03:25:04;36.63;;;34.70;;
11039;SDS011;5573;49.592;8.662;2023-11-18T03:27:34;36.37;;;34.43;;
11039;SDS011;5573;49.592;8.662;2023-11-18T03:30:01;34.20;;;32.40;;
11039;SDS011;5573;49.592;8.662;2023-11-18T03:32:31;31.87;;;30.23;;
11039;SDS011;5573;49.592;8.662;2023-11-18T03:34:59;33.53;;;31.77;;
11039;SDS011;5573;49.592;8.662;2023-11-18T03:37:27;31.27;;;29.60;;
11039;SDS011;5573;49.592;8.662;2023-11-18T03:39:55;33.27;;;31.47;;
11039;SDS011;5573;49.592;8.662;2023-11-18T03:42:23;32.53;;;30.63;;
11039;SDS011;5573;49.592;8.662;2023-11-18T03:44:50;29.97;;;28.40;;
11039;SDS011;5573;49.592;8.662;2023-11-18T03:47:18;32.03;;;30.27;;
11039;SDS011;5573;49.592;8.662;2023-11-18T03:49:51;31.53;;;29.83;;
11039;SDS011;5573;49.592;8.662;2023-11-18T03:52:20;33.10;;;31.37;;
11039;SDS011;5573;49.592;8.662;2023-11-18T03:54:48;31.87;;;30.10;;
11039;SDS011;5573;49.592;8.662;2023-11-18T03:57:16;34.70;;;32.93;;
11039;SDS011;5573;49.592;8.662;2023-11-18T03:59:44;35.63;;;33.63;;
11039;SDS011;5573;49.592;8.662;2023-11-18T04:02:12;33.83;;;32.00;;
11039;SDS011;5573;49.592;8.662;2023-11-18T04:04:40;31.93;;;29.93;;
11039;SDS011;5573;49.592;8.662;2023-11-18T04:07:09;34.87;;;33.00;;
11039;SDS011;5573;49.592;8.662;2023-11-18T04:09:37;36.53;;;34.57;;
11039;SDS011;5573;49.592;8.662;2023-11-18T04:12:07;35.63;;;33.73;;
11039;SDS011;5573;49.592;8.662;2023-11-18T04:14:36;37.23;;;35.27;;
11039;SDS011;5573;49.592;8.662;2023-11-18T04:17:04;37.13;;;35.17;;
11039;SDS011;5573;49.592;8.662;2023-11-18T04:19:34;35.00;;;33.13;;
11039;SDS011;5573;49.592;8.662;2023-11-18T04:22:02;38.57;;;36.50;;
11039;SDS011;5573;49.592;8.662;2023-11-18T04:24:32;36.60;;;34.70;;
11039;SDS011;5573;49.592;8.662;2023-11-18T04:27:02;32.37;;;30.67;;
11039;SDS011;5573;49.592;8.662;2023-11-18T04:29:30;35.60;;;33.77;;
11039;SDS011;5573;49.592;8.662;2023-11-18T04:31:58;36.27;;;34.33;;
11039;SDS011;5573;49.592;8.662;2023-11-18T04:34:27;37.77;;;35.77;;
11039;SDS011;5573;49.592;8.662;2023-11-18T04:36:54;38.53;;;36.47;;
11039;SDS011;5573;49.592;8.662;2023-11-18T04:39:22;39.87;;;37.60;;
11039;SDS011;5573;49.592;8.662;2023-11-18T04:41:53;39.40;;;37.23;;
11039;SDS011;5573;49.592;8.662;2023-11-18T04:44:22;37.10;;;35.13;;
11039;SDS011;5573;49.592;8.662;2023-11-18T04:46:50;36.73;;;34.77;;
11039;SDS011;5573;49.592;8.662;2023-11-18T04:49:18;41.93;;;39.60;;
11039;SDS011;5573;49.592;8.662;2023-11-18T04:51:46;38.70;;;36.57;;
11039;SDS011;5573;49.592;8.662;2023-11-18T04:54:14;41.23;;;39.03;;
11039;SDS011;5573;49.592;8.662;2023-11-18T04:56:42;41.57;;;39.27;;
11039;SDS011;5573;49.592;8.662;2023-11-18T04:59:12;42.23;;;39.93;;
11039;SDS011;5573;49.592;8.662;2023-11-18T05:01:40;42.20;;;40.00;;
11039;SDS011;5573;49.592;8.662;2023-11-18T05:04:08;37.93;;;35.90;;
11039;SDS011;5573;49.592;8.662;2023-11-18T05:06:37;37.73;;;35.73;;
11039;SDS011;5573;49.592;8.662;2023-11-18T05:09:05;38.93;;;36.80;;
11039;SDS011;5573;49.592;8.662;2023-11-18T05:11:34;38.07;;;36.10;;
11039;SDS011;5573;49.592;8.662;2023-11-18T05:14:02;38.67;;;36.60;;
11039;SDS011;5573;49.592;8.662;2023-11-18T05:16:32;39.43;;;36.87;;
11039;SDS011;5573;49.592;8.662;2023-11-18T05:19:00;42.87;;;40.57;;
11039;SDS011;5573;49.592;8.662;2023-11-18T05:21:27;40.67;;;38.50;;
11039;SDS011;5573;49.592;8.662;2023-11-18T05:23:55;40.33;;;38.03;;
11039;SDS011;5573;49.592;8.662;2023-11-18T05:26:23;37.53;;;35.53;;
11039;SDS011;5573;49.592;8.662;2023-11-18T05:28:51;35.63;;;33.63;;
11039;SDS011;5573;49.592;8.662;2023-11-18T05:31:21;36.13;;;34.23;;
11039;SDS011;5573;49.592;8.662;2023-11-18T05:33:50;34.77;;;32.87;;
11039;SDS011;5573;49.592;8.662;2023-11-18T05:36:22;35.07;;;32.77;;
11039;SDS011;5573;49.592;8.662;2023-11-18T05:38:54;37.33;;;35.17;;
11039;SDS011;5573;49.592;8.662;2023-11-18T05:41:22;37.77;;;35.77;;
11039;SDS011;5573;49.592;8.662;2023-11-18T05:43:54;37.67;;;35.70;;
11039;SDS011;5573;49.592;8.662;2023-11-18T05:46:23;34.70;;;32.87;;
11039;SDS011;5573;49.592;8.662;2023-11-18T05:48:53;38.40;;;36.33;;
11039;SDS011;5573;49.592;8.662;2023-11-18T05:51:22;40.93;;;38.77;;
11039;SDS011;5573;49.592;8.662;2023-11-18T05:53:51;39.83;;;37.67;;
11039;SDS011;5573;49.592;8.662;2023-11-18T05:56:20;41.27;;;39.00;;
11039;SDS011;5573;49.592;8.662;2023-11-18T05:58:50;39.17;;;37.07;;
11039;SDS011;5573;49.592;8.662;2023-11-18T06:01:20;36.80;;;34.87;;
11039;SDS011;5573;49.592;8.662;2023-11-18T06:03:49;37.30;;;35.33;;
11039;SDS011;5573;49.592;8.662;2023-11-18T06:06:19;41.93;;;39.60;;
11039;SDS011;5573;49.592;8.662;2023-11-18T06:08:50;36.83;;;34.83;;
11039;SDS011;5573;49.592;8.662;2023-11-18T06:11:19;39.97;;;37.83;;
11039;SDS011;5573;49.592;8.662;2023-11-18T06:13:47;38.53;;;36.47;;
11039;SDS011;5573;49.592;8.662;2023-11-18T06:16:17;40.30;;;38.10;;
11039;SDS011;5573;49.592;8.662;2023-11-18T06:18:48;40.47;;;38.33;;
11039;SDS011;5573;49.592;8.662;2023-11-18T06:21:19;37.67;;;35.60;;
11039;SDS011;5573;49.592;8.662;2023-11-18T06:23:50;38.80;;;36.67;;
11039;SDS011;5573;49.592;8.662;2023-11-18T06:26:22;40.13;;;37.97;;
11039;SDS011;5573;49.592;8.662;2023-11-18T06:28:53;43.33;;;41.00;;
11039;SDS011;5573;49.592;8.662;2023-11-18T06:31:21;35.77;;;33.70;;
11039;SDS011;5573;49.592;8.662;2023-11-18T06:33:50;41.60;;;39.37;;
11039;SDS011;5573;49.592;8.662;2023-11-18T06:36:21;39.37;;;37.20;;
11039;SDS011;5573;49.592;8.662;2023-11-18T06:38:50;40.50;;;38.30;;
11039;SDS011;5573;49.592;8.662;2023-11-18T06:41:19;41.23;;;38.87;;
11039;SDS011;5573;49.592;8.662;2023-11-18T06:43:50;40.83;;;38.63;;
11039;SDS011;5573;49.592;8.662;2023-11-18T06:46:28;44.87;;;42.43;;
11039;SDS011;5573;49.592;8.662;2023-11-18T06:49:00;41.50;;;39.27;;
11039;SDS011;5573;49.592;8.662;2023-11-18T06:51:32;40.83;;;38.67;;
11039;SDS011;5573;49.592;8.662;2023-11-18T06:54:04;43.57;;;41.13;;
11039;SDS011;5573;49.592;8.662;2023-11-18T06:56:37;40.57;;;38.30;;
11039;SDS011;5573;49.592;8.662;2023-11-18T06:59:05;38.87;;;36.77;;
11039;SDS011;5573;49.592;8.662;2023-11-18T07:01:34;42.53;;;40.20;;
11039;SDS011;5573;49.592;8.662;2023-11-18T07:04:02;43.83;;;41.43;;
11039;SDS011;5573;49.592;8.662;2023-11-18T07:06:36;44.03;;;41.63;;
11039;SDS011;5573;49.592;8.662;2023-11-18T07:09:05;40.03;;;37.87;;
11039;SDS011;5573;49.592;8.662;2023-11-18T07:11:40;41.10;;;38.70;;
11039;SDS011;5573;49.592;8.662;2023-11-18T07:14:08;41.07;;;38.83;;
11039;SDS011;5573;49.592;8.662;2023-11-18T07:16:37;39.97;;;37.73;;
11039;SDS011;5573;49.592;8.662;2023-11-18T07:19:05;41.43;;;39.23;;
11039;SDS011;5573;49.592;8.662;2023-11-18T07:21:33;37.33;;;35.37;;
11039;SDS011;5573;49.592;8.662;2023-11-18T07:24:03;38.60;;;36.50;;
11039;SDS011;5573;49.592;8.662;2023-11-18T07:26:31;37.83;;;35.83;;
11039;SDS011;5573;49.592;8.662;2023-11-18T07:28:59;33.83;;;31.90;;
11039;SDS011;5573;49.592;8.662;2023-11-18T07:31:27;34.37;;;32.37;;
11039;SDS011;5573;49.592;8.662;2023-11-18T07:33:55;33.73;;;31.90;;
11039;SDS011;5573;49.592;8.662;2023-11-18T07:36:23;36.57;;;34.57;;
11039;SDS011;5573;49.592;8.662;2023-11-18T07:38:53;34.67;;;32.80;;
11039;SDS011;5573;49.592;8.662;2023-11-18T07:41:21;37.60;;;35.40;;
11039;SDS011;5573;49.592;8.662;2023-11-18T07:43:51;34.90;;;32.93;;
11039;SDS011;5573;49.592;8.662;2023-11-18T07:46:21;38.37;;;36.30;;
11039;SDS011;5573;49.592;8.662;2023-11-18T07:48:50;38.57;;;36.50;;
11039;SDS011;5573;49.592;8.662;2023-11-18T07:51:19;31.40;;;29.73;;
11039;SDS011;5573;49.592;8.662;2023-11-18T07:53:48;35.80;;;33.87;;
11039;SDS011;5573;49.592;8.662;2023-11-18T07:56:17;31.30;;;29.57;;
11039;SDS011;5573;49.592;8.662;2023-11-18T07:58:47;32.23;;;30.37;;
11039;SDS011;5573;49.592;8.662;2023-11-18T08:01:15;31.97;;;30.23;;
11039;SDS011;5573;49.592;8.662;2023-11-18T08:03:43;36.47;;;34.20;;
11039;SDS011;5573;49.592;8.662;2023-11-18T08:06:11;35.93;;;33.93;;
11039;SDS011;5573;49.592;8.662;2023-11-18T08:08:39;36.83;;;34.87;;
11039;SDS011;5573;49.592;8.662;2023-11-18T08:11:09;36.67;;;34.47;;
11039;SDS011;5573;49.592;8.662;2023-11-18T08:13:39;36.13;;;34.10;;
11039;SDS011;5573;49.592;8.662;2023-11-18T08:16:08;34.67;;;32.70;;
11039;SDS011;5573;49.592;8.662;2023-11-18T08:18:36;34.17;;;32.30;;
11039;SDS011;5573;49.592;8.662;2023-11-18T08:21:04;33.67;;;31.83;;
11039;SDS011;5573;49.592;8.662;2023-11-18T08:23:33;35.60;;;33.67;;
11039;SDS011;5573;49.592;8.662;2023-11-18T08:26:02;35.03;;;33.07;;
11039;SDS011;5573;49.592;8.662;2023-11-18T08:28:32;33.13;;;31.23;;
11039;SDS011;5573;49.592;8.662;2023-11-18T08:31:01;36.27;;;34.07;;
11039;SDS011;5573;49.592;8.662;2023-11-18T08:33:30;35.43;;;33.53;;
11039;SDS011;5573;49.592;8.662;2023-11-18T08:35:58;35.70;;;33.70;;
11039;SDS011;5573;49.592;8.662;2023-11-18T08:38:28;33.17;;;31.27;;
11039;SDS011;5573;49.592;8.662;2023-11-18T08:40:56;32.43;;;30.77;;
11039;SDS011;5573;49.592;8.662;2023-11-18T08:43:23;30.30;;;28.67;;
11039;SDS011;5573;49.592;8.662;2023-11-18T08:45:52;38.13;;;36.10;;
11039;SDS011;5573;49.592;8.662;2023-11-18T08:48:22;36.10;;;34.10;;
11039;SDS011;5573;49.592;8.662;2023-11-18T08:50:50;34.53;;;32.73;;
11039;SDS011;5573;49.592;8.662;2023-11-18T08:53:18;37.50;;;35.33;;
11039;SDS011;5573;49.592;8.662;2023-11-18T08:55:52;33.00;;;31.23;;
11039;SDS011;5573;49.592;8.662;2023-11-18T08:58:22;34.47;;;32.67;;
11039;SDS011;5573;49.592;8.662;2023-11-18T09:00:54;34.20;;;32.40;;
11039;SDS011;5573;49.592;8.662;2023-11-18T09:03:34;37.93;;;35.63;;
11039;SDS011;5573;49.592;8.662;2023-11-18T09:06:04;36.97;;;35.03;;
11039;SDS011;5573;49.592;8.662;2023-11-18T09:08:45;35.47;;;33.47;;
11039;SDS011;5573;49.592;8.662;2023-11-18T09:11:20;34.67;;;32.80;;
11039;SDS011;5573;49.592;8.662;2023-11-18T09:13:49;37.83;;;35.73;;
11039;SDS011;5573;49.592;8.662;2023-11-18T09:16:20;36.03;;;34.13;;
11039;SDS011;5573;49.592;8.662;2023-11-18T09:18:50;33.13;;;31.37;;
11039;SDS011;5573;49.592;8.662;2023-11-18T09:21:19;32.63;;;30.87;;
11039;SDS011;5573;49.592;8.662;2023-11-18T09:23:52;34.33;;;32.47;;
11039;SDS011;5573;49.592;8.662;2023-11-18T09:26:20;32.40;;;30.60;;
11039;SDS011;5573;49.592;8.662;2023-11-18T09:28:48;33.13;;;31.40;;
11039;SDS011;5573;49.592;8.662;2023-11-18T09:31:16;34.37;;;32.43;;
11039;SDS011;5573;49.592;8.662;2023-11-18T09:33:44;37.60;;;35.33;;
11039;SDS011;5573;49.592;8.662;2023-11-18T09:36:21;36.33;;;34.43;;
11039;SDS011;5573;49.592;8.662;2023-11-18T09:38:49;35.57;;;33.57;;
11039;SDS011;5573;49.592;8.662;2023-11-18T09:41:17;39.47;;;37.37;;
11039;SDS011;5573;49.592;8.662;2023-11-18T09:43:45;39.27;;;37.20;;
11039;SDS011;5573;49.592;8.662;2023-11-18T09:46:15;35.27;;;33.33;;
11039;SDS011;5573;49.592;8.662;2023-11-18T09:48:46;34.23;;;32.37;;
11039;SDS011;5573;49.592;8.662;2023-11-18T09:51:21;33.37;;;31.50;;
11039;SDS011;5573;49.592;8.662;2023-11-18T09:53:50;33.57;;;31.83;;
11039;SDS011;5573;49.592;8.662;2023-11-18T09:56:23;34.73;;;32.87;;
11039;SDS011;5573;49.592;8.662;2023-11-18T09:59:06;33.90;;;32.07;;
11039;SDS011;5573;49.592;8.662;2023-11-18T10:01:43;38.10;;;36.07;;
11039;SDS011;5573;49.592;8.662;2023-11-18T10:04:13;36.17;;;34.27;;
11039;SDS011;5573;49.592;8.662;2023-11-18T10:06:46;35.17;;;33.33;;
11039;SDS011;5573;49.592;8.662;2023-11-18T10:09:19;38.87;;;36.80;;
11039;SDS011;5573;49.592;8.662;2023-11-18T10:11:55;35.70;;;33.80;;
11039;SDS011;5573;49.592;8.662;2023-11-18T10:14:27;36.10;;;34.03;;
11039;SDS011;5573;49.592;8.662;2023-11-18T10:16:56;33.90;;;32.07;;
11039;SDS011;5573;49.592;8.662;2023-11-18T10:19:24;35.20;;;33.40;;
11039;SDS011;5573;49.592;8.662;2023-11-18T10:21:54;32.40;;;30.70;;
11039;SDS011;5573;49.592;8.662;2023-11-18T10:24:23;34.87;;;33.00;;
11039;SDS011;5573;49.592;8.662;2023-11-18T10:26:55;35.23;;;33.40;;
11039;SDS011;5573;49.592;8.662;2023-11-18T10:29:24;33.43;;;31.63;;
11039;SDS011;5573;49.592;8.662;2023-11-18T10:32:04;33.93;;;32.10;;
11039;SDS011;5573;49.592;8.662;2023-11-18T10:34:36;32.50;;;30.80;;
11039;SDS011;5573;49.592;8.662;2023-11-18T10:37:08;32.23;;;30.50;;
11039;SDS011;5573;49.592;8.662;2023-11-18T10:39:37;36.63;;;34.73;;
11039;SDS011;5573;49.592;8.662;2023-11-18T10:42:05;35.57;;;33.60;;
11039;SDS011;5573;49.592;8.662;2023-11-18T10:44:34;35.30;;;33.20;;
11039;SDS011;5573;49.592;8.662;2023-11-18T10:47:02;34.67;;;32.83;;
11039;SDS011;5573;49.592;8.662;2023-11-18T10:49:31;33.57;;;31.80;;
11039;SDS011;5573;49.592;8.662;2023-11-18T10:52:04;34.57;;;32.77;;
11039;SDS011;5573;49.592;8.662;2023-11-18T10:54:36;33.33;;;31.50;;
11039;SDS011;5573;49.592;8.662;2023-11-18T10:57:04;35.70;;;33.80;;
11039;SDS011;5573;49.592;8.662;2023-11-18T10:59:35;31.77;;;30.10;;
11039;SDS011;5573;49.592;8.662;2023-11-18T11:02:17;35.17;;;33.17;;
11039;SDS011;5573;49.592;8.662;2023-11-18T11:04:48;33.30;;;31.43;;
11039;SDS011;5573;49.592;8.662;2023-11-18T11:07:16;35.47;;;33.53;;
11039;SDS011;5573;49.592;8.662;2023-11-18T11:09:48;35.00;;;33.10;;
11039;SDS011;5573;49.592;8.662;2023-11-18T11:12:23;37.57;;;35.57;;
11039;SDS011;5573;49.592;8.662;2023-11-18T11:14:56;38.33;;;36.23;;
11039;SDS011;5573;49.592;8.662;2023-11-18T11:17:27;35.77;;;33.87;;
11039;SDS011;5573;49.592;8.662;2023-11-18T11:19:59;35.83;;;33.93;;
11039;SDS011;5573;49.592;8.662;2023-11-18T11:22:41;32.93;;;31.23;;
11039;SDS011;5573;49.592;8.662;2023-11-18T11:25:22;35.57;;;33.73;;
11039;SDS011;5573;49.592;8.662;2023-11-18T11:27:59;32.87;;;31.03;;
11039;SDS011;5573;49.592;8.662;2023-11-18T11:30:33;35.87;;;34.00;;
11039;SDS011;5573;49.592;8.662;2023-11-18T11:33:13;36.57;;;34.70;;
11039;SDS011;5573;49.592;8.662;2023-11-18T11:35:45;38.03;;;36.07;;
11039;SDS011;5573;49.592;8.662;2023-11-18T11:38:16;35.13;;;33.33;;
11039;SDS011;5573;49.592;8.662;2023-11-18T11:40:47;34.87;;;33.07;;
11039;SDS011;5573;49.592;8.662;2023-11-18T11:43:19;36.17;;;34.30;;
11039;SDS011;5573;49.592;8.662;2023-11-18T11:45:49;37.10;;;35.17;;
11039;SDS011;5573;49.592;8.662;2023-11-18T11:48:21;43.60;;;41.30;;
11039;SDS011;5573;49.592;8.662;2023-11-18T11:50:55;42.90;;;40.67;;
11039;SDS011;5573;49.592;8.662;2023-11-18T11:53:32;45.03;;;42.67;;
11039;SDS011;5573;49.592;8.662;2023-11-18T11:56:07;46.17;;;43.77;;
11039;SDS011;5573;49.592;8.662;2023-11-18T11:58:41;46.57;;;44.10;;
11039;SDS011;5573;49.592;8.662;2023-11-18T12:01:15;43.40;;;41.13;;
11039;SDS011;5573;49.592;8.662;2023-11-18T12:03:50;42.43;;;40.23;;
11039;SDS011;5573;49.592;8.662;2023-11-18T12:06:26;43.37;;;41.13;;
11039;SDS011;5573;49.592;8.662;2023-11-18T12:08:54;43.93;;;41.67;;
11039;SDS011;5573;49.592;8.662;2023-11-18T12:11:25;44.70;;;42.40;;
11039;SDS011;5573;49.592;8.662;2023-11-18T12:14:02;46.23;;;43.83;;
11039;SDS011;5573;49.592;8.662;2023-11-18T12:16:58;43.73;;;41.43;;
11039;SDS011;5573;49.592;8.662;2023-11-18T12:19:33;38.93;;;36.97;;
11039;SDS011;5573;49.592;8.662;2023-11-18T12:22:14;43.27;;;41.00;;
11039;SDS011;5573;49.592;8.662;2023-11-18T12:28:07;42.83;;;40.60;;
11039;SDS011;5573;49.592;8.662;2023-11-18T12:30:39;42.17;;;39.93;;
11039;SDS011;5573;49.592;8.662;2023-11-18T12:33:19;45.53;;;43.07;;
11039;SDS011;5573;49.592;8.662;2023-11-18T12:42:05;42.47;;;40.27;;
11039;SDS011;5573;49.592;8.662;2023-11-18T12:44:47;40.67;;;38.60;;
11039;SDS011;5573;49.592;8.662;2023-11-18T12:47:41;39.63;;;37.63;;
11039;SDS011;5573;49.592;8.662;2023-11-18T12:50:11;43.50;;;41.28;;
11039;SDS011;5573;49.592;8.662;2023-11-18T12:52:51;43.90;;;41.63;;
11039;SDS011;5573;49.592;8.662;2023-11-18T12:55:19;44.80;;;42.47;;
11039;SDS011;5573;49.592;8.662;2023-11-18T12:57:48;43.80;;;41.55;;
11039;SDS011;5573;49.592;8.662;2023-11-18T13:00:19;44.33;;;42.03;;
11039;SDS011;5573;49.592;8.662;2023-11-18T13:02:53;45.37;;;43.03;;
11039;SDS011;5573;49.592;8.662;2023-11-18T13:05:22;45.63;;;43.33;;
11039;SDS011;5573;49.592;8.662;2023-11-18T13:07:50;45.00;;;42.67;;
11039;SDS011;5573;49.592;8.662;2023-11-18T13:10:18;44.90;;;42.60;;
11039;SDS011;5573;49.592;8.662;2023-11-18T13:12:48;48.53;;;46.03;;
11039;SDS011;5573;49.592;8.662;2023-11-18T13:15:16;47.70;;;45.20;;
11039;SDS011;5573;49.592;8.662;2023-11-18T13:17:57;46.30;;;43.87;;
11039;SDS011;5573;49.592;8.662;2023-11-18T13:20:26;46.33;;;43.93;;
11039;SDS011;5573;49.592;8.662;2023-11-18T13:22:55;48.43;;;45.93;;
11039;SDS011;5573;49.592;8.662;2023-11-18T13:25:23;42.73;;;40.57;;
11039;SDS011;5573;49.592;8.662;2023-11-18T13:27:51;47.93;;;45.47;;
11039;SDS011;5573;49.592;8.662;2023-11-18T13:30:21;45.30;;;42.93;;
11039;SDS011;5573;49.592;8.662;2023-11-18T13:32:50;43.97;;;41.73;;
11039;SDS011;5573;49.592;8.662;2023-11-18T13:35:20;46.13;;;43.77;;
11039;SDS011;5573;49.592;8.662;2023-11-18T13:37:50;43.43;;;41.23;;
11039;SDS011;5573;49.592;8.662;2023-11-18T13:40:20;44.03;;;41.63;;
11039;SDS011;5573;49.592;8.662;2023-11-18T13:43:00;46.53;;;44.13;;
11039;SDS011;5573;49.592;8.662;2023-11-18T13:45:29;43.10;;;40.90;;
11039;SDS011;5573;49.592;8.662;2023-11-18T13:48:04;48.80;;;46.30;;
11039;SDS011;5573;49.592;8.662;2023-11-18T13:50:35;43.77;;;41.57;;
11039;SDS011;5573;49.592;8.662;2023-11-18T13:53:04;41.20;;;39.10;;
11039;SDS011;5573;49.592;8.662;2023-11-18T13:55:33;42.10;;;39.97;;
11039;SDS011;5573;49.592;8.662;2023-11-18T13:58:02;45.23;;;42.93;;
11039;SDS011;5573;49.592;8.662;2023-11-18T14:00:32;47.80;;;45.33;;
11039;SDS011;5573;49.592;8.662;2023-11-18T14:02:59;42.37;;;40.20;;
11039;SDS011;5573;49.592;8.662;2023-11-18T14:05:32;45.40;;;43.10;;
11039;SDS011;5573;49.592;8.662;2023-11-18T14:08:04;44.97;;;42.60;;
11039;SDS011;5573;49.592;8.662;2023-11-18T14:10:36;48.13;;;45.63;;
11039;SDS011;5573;49.592;8.662;2023-11-18T14:13:06;46.63;;;44.23;;
11039;SDS011;5573;49.592;8.662;2023-11-18T14:15:38;44.93;;;42.57;;
11039;SDS011;5573;49.592;8.662;2023-11-18T14:18:09;45.23;;;42.93;;
11039;SDS011;5573;49.592;8.662;2023-11-18T14:20:38;45.83;;;43.50;;
11039;SDS011;5573;49.592;8.662;2023-11-18T14:23:06;46.60;;;44.10;;
11039;SDS011;5573;49.592;8.662;2023-11-18T14:25:35;48.17;;;45.70;;
11039;SDS011;5573;49.592;8.662;2023-11-18T14:28:04;46.63;;;44.23;;
11039;SDS011;5573;49.592;8.662;2023-11-18T14:30:34;51.27;;;48.63;;
11039;SDS011;5573;49.592;8.662;2023-11-18T14:33:03;45.07;;;42.73;;
11039;SDS011;5573;49.592;8.662;2023-11-18T14:35:31;50.75;;;48.13;;
11039;SDS011;5573;49.592;8.662;2023-11-18T14:38:00;46.92;;;44.50;;
11039;SDS011;5573;49.592;8.662;2023-11-18T14:40:29;41.17;;;39.03;;
11039;SDS011;5573;49.592;8.662;2023-11-18T14:42:57;40.72;;;38.63;;
11039;SDS011;5573;49.592;8.662;2023-11-18T14:45:25;45.33;;;42.97;;
11039;SDS011;5573;49.592;8.662;2023-11-18T14:47:52;39.38;;;37.33;;
11039;SDS011;5573;49.592;8.662;2023-11-18T14:50:22;42.08;;;39.90;;
11039;SDS011;5573;49.592;8.662;2023-11-18T14:52:53;48.28;;;45.78;;
11039;SDS011;5573;49.592;8.662;2023-11-18T14:55:28;44.65;;;42.35;;
11039;SDS011;5573;49.592;8.662;2023-11-18T14:57:57;46.33;;;43.93;;
11039;SDS011;5573;49.592;8.662;2023-11-18T15:00:25;46.73;;;44.33;;